createdAt,value
2022-11-08T00:01:35.168Z,4.65
2022-11-08T00:04:05.635Z,4.95
2022-11-08T00:06:56.299Z,4.93
2022-11-08T00:09:41.928Z,4.45
2022-11-08T00:12:27.285Z,5.38
2022-11-08T00:14:55.863Z,5.35
2022-11-08T00:17:25.828Z,5.00
2022-11-08T00:19:54.167Z,4.88
2022-11-08T00:22:23.503Z,5.55
2022-11-08T00:24:51.946Z,5.82
2022-11-08T00:27:21.762Z,4.60
2022-11-08T00:29:50.057Z,5.65
2022-11-08T00:32:20.373Z,5.78
2022-11-08T00:34:48.678Z,4.97
2022-11-08T00:37:17.401Z,5.07
2022-11-08T00:39:46.942Z,5.53
2022-11-08T00:42:14.624Z,5.07
2022-11-08T00:44:42.346Z,6.03
2022-11-08T00:47:10.597Z,5.30
2022-11-08T00:49:38.265Z,5.10
2022-11-08T00:52:06.270Z,4.82
2022-11-08T00:54:34.003Z,5.38
2022-11-08T00:57:03.071Z,5.68
2022-11-08T00:59:30.746Z,5.60
2022-11-08T01:01:58.554Z,5.18
2022-11-08T01:04:26.273Z,4.90
2022-11-08T01:06:53.922Z,5.18
2022-11-08T01:09:21.680Z,5.38
2022-11-08T01:11:49.420Z,5.80
2022-11-08T01:14:19.005Z,4.72
2022-11-08T01:16:46.688Z,5.10
2022-11-08T01:19:14.429Z,4.93
2022-11-08T01:21:42.098Z,5.10
2022-11-08T01:24:10.001Z,5.35
2022-11-08T01:26:37.677Z,5.68
2022-11-08T01:29:05.542Z,4.63
2022-11-08T01:31:34.674Z,4.60
2022-11-08T01:34:02.399Z,4.85
2022-11-08T01:36:30.477Z,5.00
2022-11-08T01:38:58.875Z,5.55
2022-11-08T01:41:27.939Z,5.40
2022-11-08T01:43:57.060Z,4.80
2022-11-08T01:46:40.188Z,5.15
2022-11-08T01:49:30.726Z,5.55
2022-11-08T01:52:31.108Z,5.50
2022-11-08T01:55:14.601Z,4.78
2022-11-08T01:57:48.035Z,5.85
2022-11-08T02:00:16.149Z,5.05
2022-11-08T02:02:48.466Z,5.18
2022-11-08T02:05:27.540Z,5.20
2022-11-08T02:08:03.256Z,4.85
2022-11-08T02:10:35.212Z,5.30
2022-11-08T02:13:05.192Z,4.60
2022-11-08T02:15:34.089Z,5.00
2022-11-08T02:18:04.105Z,5.28
2022-11-08T02:20:32.942Z,5.00
2022-11-08T02:23:07.828Z,4.95
2022-11-08T02:25:37.031Z,4.35
2022-11-08T02:28:05.006Z,4.28
2022-11-08T02:30:36.739Z,4.38
2022-11-08T02:33:16.437Z,4.90
2022-11-08T02:35:46.952Z,5.40
2022-11-08T02:38:14.849Z,5.90
2022-11-08T02:40:52.194Z,5.40
2022-11-08T02:43:20.321Z,6.38
2022-11-08T02:45:49.332Z,6.30
2022-11-08T02:48:17.857Z,5.47
2022-11-08T02:50:46.051Z,5.25
2022-11-08T02:53:14.229Z,5.13
2022-11-08T02:55:42.189Z,4.97
2022-11-08T02:58:12.660Z,5.07
2022-11-08T03:00:40.637Z,4.47
2022-11-08T03:03:08.346Z,4.50
2022-11-08T03:05:36.072Z,4.20
2022-11-08T03:08:03.923Z,4.20
2022-11-08T03:10:32.413Z,4.35
2022-11-08T03:13:02.182Z,4.30
2022-11-08T03:15:31.865Z,4.40
2022-11-08T03:18:02.184Z,3.95
2022-11-08T03:20:33.152Z,3.90
2022-11-08T03:23:02.718Z,3.25
2022-11-08T03:25:30.456Z,4.38
2022-11-08T03:28:03.016Z,3.80
2022-11-08T03:30:32.430Z,4.30
2022-11-08T03:33:00.456Z,3.67
2022-11-08T03:35:28.558Z,4.65
2022-11-08T03:37:57.655Z,4.70
2022-11-08T03:40:26.055Z,5.20
2022-11-08T03:42:53.828Z,4.18
2022-11-08T03:45:21.493Z,4.30
2022-11-08T03:47:50.582Z,4.20
2022-11-08T03:50:18.932Z,4.40
2022-11-08T03:52:48.349Z,5.18
2022-11-08T03:55:16.682Z,4.35
2022-11-08T03:57:46.435Z,4.85
2022-11-08T04:00:16.372Z,4.40
2022-11-08T04:02:44.609Z,4.10
2022-11-08T04:05:15.396Z,4.20
2022-11-08T04:07:43.325Z,3.63
2022-11-08T04:10:12.592Z,4.88
2022-11-08T04:12:58.232Z,4.85
2022-11-08T04:15:25.966Z,3.95
2022-11-08T04:18:12.371Z,4.28
2022-11-08T04:21:00.411Z,4.10
2022-11-08T04:23:29.009Z,3.85
2022-11-08T04:25:58.218Z,5.22
2022-11-08T04:28:27.082Z,4.55
2022-11-08T04:30:57.213Z,4.78
2022-11-08T04:33:25.806Z,4.90
2022-11-08T04:35:55.080Z,5.10
2022-11-08T04:38:23.081Z,4.00
2022-11-08T04:40:50.826Z,4.03
2022-11-08T04:43:18.429Z,4.45
2022-11-08T04:45:46.063Z,4.85
2022-11-08T04:48:13.804Z,4.18
2022-11-08T04:50:41.465Z,4.40
2022-11-08T04:53:10.494Z,4.40
2022-11-08T04:55:38.169Z,4.40
2022-11-08T04:58:05.826Z,3.97
2022-11-08T05:00:33.495Z,4.15
2022-11-08T05:03:03.089Z,4.28
2022-11-08T05:05:30.983Z,3.92
2022-11-08T05:07:58.771Z,4.60
2022-11-08T05:10:27.984Z,4.20
2022-11-08T05:12:57.726Z,4.20
2022-11-08T05:15:25.849Z,3.90
2022-11-08T05:17:53.557Z,4.40
2022-11-08T05:20:38.751Z,3.88
2022-11-08T05:23:24.045Z,3.88
2022-11-08T05:25:54.130Z,4.22
2022-11-08T05:28:22.696Z,4.82
2022-11-08T05:30:54.857Z,4.68
2022-11-08T05:33:22.872Z,4.38
2022-11-08T05:35:50.807Z,4.78
2022-11-08T05:38:19.161Z,4.70
2022-11-08T05:40:47.883Z,5.20
2022-11-08T05:43:17.113Z,4.35
2022-11-08T05:45:46.686Z,3.90
2022-11-08T05:48:14.623Z,4.10
2022-11-08T05:50:42.418Z,3.90
2022-11-08T05:53:10.141Z,4.00
2022-11-08T05:55:37.834Z,3.95
2022-11-08T05:58:05.712Z,4.00
2022-11-08T06:00:35.260Z,3.65
2022-11-08T06:03:03.941Z,4.57
2022-11-08T06:05:32.088Z,4.80
2022-11-08T06:07:59.943Z,4.75
2022-11-08T06:10:28.477Z,4.43
2022-11-08T06:12:59.890Z,4.20
2022-11-08T06:15:27.648Z,4.47
2022-11-08T06:18:00.212Z,4.53
2022-11-08T06:20:33.870Z,5.15
2022-11-08T06:23:02.805Z,4.30
2022-11-08T06:25:30.748Z,4.40
2022-11-08T06:28:00.747Z,4.35
2022-11-08T06:30:28.579Z,3.88
2022-11-08T06:33:00.268Z,4.80
2022-11-08T06:35:28.054Z,5.00
2022-11-08T06:38:00.538Z,4.47
2022-11-08T06:40:31.043Z,3.95
2022-11-08T06:42:58.997Z,5.15
2022-11-08T06:45:26.817Z,4.75
2022-11-08T06:47:59.678Z,4.30
2022-11-08T06:50:27.511Z,4.45
2022-11-08T06:52:57.975Z,5.15
2022-11-08T06:55:25.967Z,5.25
2022-11-08T06:57:54.018Z,4.70
2022-11-08T07:00:22.352Z,4.32
2022-11-08T07:02:53.856Z,4.05
2022-11-08T07:05:23.843Z,4.78
2022-11-08T07:07:55.538Z,4.60
2022-11-08T07:10:31.849Z,5.70
2022-11-08T07:13:00.853Z,4.40
2022-11-08T07:15:29.188Z,4.82
2022-11-08T07:18:01.842Z,4.85
2022-11-08T07:20:31.454Z,5.20
2022-11-08T07:22:59.760Z,5.85
2022-11-08T07:25:28.969Z,5.97
2022-11-08T07:27:57.100Z,5.97
2022-11-08T07:30:25.088Z,5.30
2022-11-08T07:32:53.115Z,4.70
2022-11-08T07:35:20.858Z,5.57
2022-11-08T07:37:50.047Z,5.28
2022-11-08T07:40:17.988Z,5.05
2022-11-08T07:43:10.075Z,6.45
2022-11-08T07:45:33.396Z,4.40
2022-11-08T07:48:04.418Z,4.35
2022-11-08T07:50:35.940Z,5.28
2022-11-08T07:53:05.079Z,5.70
2022-11-08T07:55:32.883Z,5.78
2022-11-08T07:58:02.244Z,4.57
2022-11-08T08:00:30.133Z,4.40
2022-11-08T08:03:02.281Z,4.97
2022-11-08T08:05:36.231Z,4.60
2022-11-08T08:08:06.336Z,5.45
2022-11-08T08:10:35.207Z,3.80
2022-11-08T08:13:03.333Z,4.30
2022-11-08T08:15:31.419Z,4.50
2022-11-08T08:18:02.095Z,3.37
2022-11-08T08:20:30.862Z,3.50
2022-11-08T08:22:59.580Z,3.33
2022-11-08T08:25:31.028Z,3.60
2022-11-08T08:28:01.748Z,3.30
2022-11-08T08:30:31.333Z,3.20
2022-11-08T08:33:33.984Z,3.17
2022-11-08T08:35:53.476Z,2.87
2022-11-08T08:38:21.333Z,3.00
2022-11-08T08:40:51.027Z,2.97
2022-11-08T08:43:19.112Z,3.60
2022-11-08T08:45:47.322Z,2.77
2022-11-08T08:48:15.385Z,2.60
2022-11-08T08:50:43.571Z,2.47
2022-11-08T08:53:11.507Z,2.10
2022-11-08T08:55:41.739Z,2.77
2022-11-08T08:58:12.075Z,3.73
2022-11-08T09:03:28.156Z,2.43
2022-11-08T09:05:58.821Z,2.03
2022-11-08T09:08:26.848Z,2.30
2022-11-08T09:10:55.658Z,2.90
2022-11-08T09:13:26.855Z,2.70
2022-11-08T09:15:54.956Z,2.47
2022-11-08T09:18:22.902Z,3.67
2022-11-08T09:20:50.738Z,2.00
2022-11-08T09:23:19.122Z,1.83
2022-11-08T09:25:47.045Z,1.40
2022-11-08T09:28:14.755Z,1.90
2022-11-08T09:30:43.853Z,1.87
2022-11-08T09:33:11.633Z,2.80
2022-11-08T09:35:39.356Z,3.00
2022-11-08T09:38:07.418Z,1.90
2022-11-08T09:40:41.217Z,2.00
2022-11-08T09:43:29.279Z,1.77
2022-11-08T09:45:58.626Z,2.13
2022-11-08T09:48:30.814Z,1.70
2022-11-08T09:51:02.530Z,1.73
2022-11-08T09:53:35.937Z,1.80
2022-11-08T09:56:08.168Z,2.67
2022-11-08T09:58:39.144Z,2.10
2022-11-08T10:01:11.751Z,2.43
2022-11-08T10:03:39.783Z,3.37
2022-11-08T10:06:39.217Z,2.70
2022-11-08T10:09:22.588Z,2.07
2022-11-08T10:12:10.772Z,2.10
2022-11-08T10:14:53.906Z,2.10
2022-11-08T10:17:48.150Z,1.70
2022-11-08T10:20:24.818Z,1.80
2022-11-08T10:23:00.662Z,2.17
2022-11-08T10:25:42.452Z,1.70
2022-11-08T10:28:17.191Z,1.63
2022-11-08T10:30:49.426Z,2.23
2022-11-08T10:33:22.977Z,1.70
2022-11-08T10:36:01.850Z,1.60
2022-11-08T10:38:36.444Z,2.20
2022-11-08T10:41:15.376Z,1.87
2022-11-08T10:43:47.012Z,2.10
2022-11-08T10:46:37.228Z,1.93
2022-11-08T10:49:17.625Z,1.80
2022-11-08T10:51:46.188Z,2.13
2022-11-08T10:54:49.158Z,1.80
2022-11-08T10:57:19.049Z,1.73
2022-11-08T10:59:47.202Z,2.73
2022-11-08T11:02:29.770Z,1.80
2022-11-08T11:05:25.359Z,2.50
2022-11-08T11:08:19.014Z,1.90
2022-11-08T11:10:48.525Z,1.90
2022-11-08T11:13:21.720Z,3.80
2022-11-08T11:15:52.315Z,3.40
2022-11-08T11:18:28.687Z,2.23
2022-11-08T11:21:17.828Z,1.80
2022-11-08T11:23:48.226Z,1.80
2022-11-08T11:26:20.579Z,2.00
2022-11-08T11:29:15.419Z,1.77
2022-11-08T11:31:45.076Z,1.80
2022-11-08T11:34:36.956Z,1.80
2022-11-08T11:37:19.167Z,2.10
2022-11-08T11:39:56.405Z,1.97
2022-11-08T11:42:45.133Z,1.90
2022-11-08T11:45:18.911Z,1.80
2022-11-08T11:47:51.170Z,1.43
2022-11-08T11:50:33.085Z,2.10
2022-11-08T11:53:04.893Z,2.07
2022-11-08T11:55:48.060Z,1.90
2022-11-08T11:58:29.591Z,2.27
2022-11-08T12:01:03.983Z,1.60
2022-11-08T12:03:49.804Z,2.10
2022-11-08T12:06:28.116Z,1.97
2022-11-08T12:09:12.700Z,1.67
2022-11-08T12:11:51.061Z,1.90
2022-11-08T12:14:34.999Z,1.87
2022-11-08T12:17:13.470Z,2.10
2022-11-08T12:19:48.117Z,2.37
2022-11-08T12:22:35.425Z,1.53
2022-11-08T12:25:12.225Z,1.63
2022-11-08T12:27:56.724Z,1.80
2022-11-08T12:30:31.133Z,3.47
2022-11-08T12:33:05.034Z,2.80
2022-11-08T12:35:43.258Z,2.50
2022-11-08T12:38:22.736Z,1.60
2022-11-08T12:41:00.239Z,1.80
2022-11-08T12:43:45.810Z,1.70
2022-11-08T12:46:18.275Z,2.73
2022-11-08T12:49:06.938Z,2.00
2022-11-08T12:51:45.569Z,1.50
2022-11-08T12:54:27.327Z,1.40
2022-11-08T12:57:01.008Z,1.53
2022-11-08T12:59:33.710Z,2.40
2022-11-08T13:02:03.223Z,2.13
2022-11-08T13:04:47.853Z,1.70
2022-11-08T13:07:28.408Z,2.20
2022-11-08T13:10:03.534Z,1.80
2022-11-08T13:12:45.371Z,1.50
2022-11-08T13:15:19.519Z,1.60
2022-11-08T13:18:26.186Z,2.97
2022-11-08T13:20:54.019Z,3.20
2022-11-08T13:23:29.478Z,2.27
2022-11-08T13:26:13.677Z,2.27
2022-11-08T13:28:46.617Z,1.90
2022-11-08T13:31:41.102Z,1.70
2022-11-08T13:34:27.251Z,2.50
2022-11-08T13:37:05.910Z,2.17
2022-11-08T13:39:48.208Z,1.93
2022-11-08T13:42:40.692Z,2.17
2022-11-08T13:45:29.559Z,2.10
2022-11-08T13:48:00.194Z,2.77
2022-11-08T13:50:50.925Z,2.27
2022-11-08T13:53:54.723Z,2.10
2022-11-08T13:56:45.076Z,2.03
2022-11-08T13:59:46.216Z,1.70
2022-11-08T14:02:37.504Z,1.70
2022-11-08T14:05:29.945Z,1.50
2022-11-08T14:08:20.900Z,1.70
2022-11-08T14:11:37.569Z,2.30
2022-11-08T14:14:24.740Z,2.00
2022-11-08T14:17:05.281Z,2.27
2022-11-08T14:19:37.875Z,2.47
2022-11-08T14:22:13.423Z,2.63
2022-11-08T14:24:41.260Z,2.63
2022-11-08T14:27:09.044Z,2.97
2022-11-08T14:29:37.094Z,2.70
2022-11-08T14:32:08.397Z,3.00
2022-11-08T14:34:41.724Z,1.97
2022-11-08T14:37:23.507Z,2.57
2022-11-08T14:39:52.342Z,2.67
2022-11-08T14:42:24.275Z,3.00
2022-11-08T14:44:55.034Z,1.73
2022-11-08T14:47:28.606Z,2.20
2022-11-08T14:49:58.508Z,2.57
2022-11-08T14:52:29.599Z,2.43
2022-11-08T14:55:06.048Z,2.73
2022-11-08T14:57:37.091Z,2.30
2022-11-08T15:00:14.569Z,2.57
2022-11-08T15:02:45.498Z,1.77
2022-11-08T15:05:30.747Z,2.33
2022-11-08T15:07:59.462Z,2.03
2022-11-08T15:10:28.154Z,1.80
2022-11-08T15:12:56.811Z,1.83
2022-11-08T15:15:27.807Z,1.63
2022-11-08T15:18:15.586Z,1.63
2022-11-08T15:20:57.059Z,2.07
2022-11-08T15:23:42.888Z,2.23
2022-11-08T15:26:22.709Z,2.20
2022-11-08T15:29:02.083Z,2.50
2022-11-08T15:31:33.084Z,2.70
2022-11-08T15:34:00.852Z,2.60
2022-11-08T15:36:34.113Z,3.30
2022-11-08T15:39:03.928Z,3.63
2022-11-08T15:41:34.857Z,3.70
2022-11-08T15:44:26.623Z,3.87
2022-11-08T15:46:55.369Z,3.77
2022-11-08T15:49:24.711Z,2.63
2022-11-08T15:51:55.737Z,3.53
2022-11-08T15:54:24.967Z,3.30
2022-11-08T15:56:54.794Z,3.40
2022-11-08T15:59:26.467Z,3.30
2022-11-08T16:01:57.537Z,3.53
2022-11-08T16:04:25.958Z,3.10
2022-11-08T16:06:55.828Z,3.27
2022-11-08T16:09:23.608Z,3.63
2022-11-08T16:11:51.525Z,4.47
2022-11-08T16:14:21.821Z,3.17
2022-11-08T16:16:49.675Z,6.40
2022-11-08T16:19:20.492Z,8.80
2022-11-08T16:21:48.840Z,6.33
2022-11-08T16:24:18.841Z,4.40
2022-11-08T16:26:47.755Z,3.57
2022-11-08T16:29:21.606Z,3.80
2022-11-08T16:31:50.374Z,3.53
2022-11-08T16:34:18.635Z,3.80
2022-11-08T16:36:47.821Z,3.50
2022-11-08T16:39:19.179Z,3.87
2022-11-08T16:41:47.140Z,3.30
2022-11-08T16:44:20.406Z,3.30
2022-11-08T16:46:48.776Z,3.70
2022-11-08T16:49:21.868Z,4.07
2022-11-08T16:51:51.120Z,4.07
2022-11-08T16:54:23.908Z,4.50
2022-11-08T16:56:53.654Z,5.10
2022-11-08T16:59:27.330Z,5.10
2022-11-08T17:01:55.285Z,4.20
2022-11-08T17:04:23.186Z,4.00
2022-11-08T17:06:51.010Z,3.63
2022-11-08T17:09:20.389Z,4.00
2022-11-08T17:11:48.275Z,3.90
2022-11-08T17:14:16.298Z,3.90
2022-11-08T17:16:44.325Z,3.70
2022-11-08T17:19:12.675Z,3.87
2022-11-08T17:21:45.093Z,3.40
2022-11-08T17:24:20.855Z,4.13
2022-11-08T17:26:51.022Z,3.83
2022-11-08T17:29:18.736Z,3.87
2022-11-08T17:31:46.501Z,4.67
2022-11-08T17:34:14.427Z,3.70
2022-11-08T17:36:42.460Z,4.40
2022-11-08T17:39:13.997Z,4.03
2022-11-08T17:41:42.020Z,4.70
2022-11-08T17:44:11.197Z,4.80
2022-11-08T17:46:39.736Z,4.70
2022-11-08T17:49:07.495Z,4.43
2022-11-08T17:51:36.656Z,4.30
2022-11-08T17:54:04.849Z,4.33
2022-11-08T17:56:32.797Z,4.50
2022-11-08T17:59:01.951Z,4.70
2022-11-08T18:01:31.620Z,4.10
2022-11-08T18:03:59.601Z,4.47
2022-11-08T18:06:27.372Z,4.33
2022-11-08T18:08:56.746Z,5.03
2022-11-08T18:11:24.996Z,4.40
2022-11-08T18:13:52.816Z,5.40
2022-11-08T18:16:22.407Z,3.87
2022-11-08T18:18:52.571Z,6.30
2022-11-08T18:21:20.940Z,5.10
2022-11-08T18:23:50.064Z,5.00
2022-11-08T18:26:19.254Z,5.70
2022-11-08T18:28:47.302Z,6.33
2022-11-08T18:31:17.688Z,6.70
2022-11-08T18:33:46.205Z,5.60
2022-11-08T18:36:18.198Z,4.40
2022-11-08T18:38:46.304Z,5.70
2022-11-08T18:41:16.270Z,5.50
2022-11-08T18:43:44.274Z,6.40
2022-11-08T18:46:14.771Z,5.30
2022-11-08T18:48:42.894Z,5.10
2022-11-08T18:51:12.825Z,5.03
2022-11-08T18:53:42.857Z,5.63
2022-11-08T18:56:12.740Z,5.30
2022-11-08T18:58:41.310Z,5.60
2022-11-08T19:01:09.252Z,4.80
2022-11-08T19:03:39.205Z,3.87
2022-11-08T19:06:09.998Z,3.63
2022-11-08T19:08:37.780Z,3.97
2022-11-08T19:11:09.562Z,3.50
2022-11-08T19:13:39.275Z,4.70
2022-11-08T19:16:10.050Z,5.00
2022-11-08T19:18:38.310Z,4.83
2022-11-08T19:21:08.542Z,4.17
2022-11-08T19:23:38.406Z,3.83
2022-11-08T19:26:09.749Z,3.93
2022-11-08T19:28:40.082Z,3.83
2022-11-08T19:31:08.921Z,4.17
2022-11-08T19:33:37.446Z,4.60
2022-11-08T19:36:08.785Z,5.53
2022-11-08T19:38:38.175Z,4.33
2022-11-08T19:41:09.787Z,4.03
2022-11-08T19:43:38.308Z,4.07
2022-11-08T19:46:07.972Z,4.07
2022-11-08T19:48:37.844Z,3.80
2022-11-08T19:51:07.628Z,4.20
2022-11-08T19:53:36.228Z,4.27
2022-11-08T19:56:05.708Z,3.90
2022-11-08T19:58:36.294Z,4.30
2022-11-08T20:01:08.512Z,4.00
2022-11-08T20:03:36.202Z,4.23
2022-11-08T20:06:04.325Z,4.50
2022-11-08T20:08:32.457Z,3.60
2022-11-08T20:11:00.663Z,4.17
2022-11-08T20:13:28.627Z,3.47
2022-11-08T20:16:09.434Z,3.80
2022-11-08T20:18:37.179Z,4.27
2022-11-08T20:21:06.422Z,4.07
2022-11-08T20:23:34.377Z,4.00
2022-11-08T20:26:02.882Z,3.87
2022-11-08T20:28:31.346Z,3.87
2022-11-08T20:31:05.280Z,3.93
2022-11-08T20:33:34.803Z,3.93
2022-11-08T20:36:04.056Z,3.83
2022-11-08T20:38:31.840Z,4.10
2022-11-08T20:41:00.712Z,4.40
2022-11-08T20:43:29.935Z,3.80
2022-11-08T20:46:04.043Z,4.00
2022-11-08T20:48:32.530Z,4.07
2022-11-08T20:51:01.222Z,4.37
2022-11-08T20:53:32.098Z,4.40
2022-11-08T20:56:01.779Z,4.77
2022-11-08T20:58:31.518Z,5.10
2022-11-08T21:01:00.776Z,4.37
2022-11-08T21:03:30.821Z,4.20
2022-11-08T21:06:00.618Z,5.33
2022-11-08T21:08:58.646Z,4.87
2022-11-08T21:11:18.018Z,3.63
2022-11-08T21:13:46.428Z,3.73
2022-11-08T21:16:29.349Z,4.23
2022-11-08T21:19:00.463Z,4.00
2022-11-08T21:21:28.631Z,3.97
2022-11-08T21:23:56.337Z,4.33
2022-11-08T21:26:24.637Z,3.83
2022-11-08T21:28:52.647Z,3.97
2022-11-08T21:31:20.691Z,4.53
2022-11-08T21:33:48.592Z,3.60
2022-11-08T21:36:18.424Z,3.97
2022-11-08T21:38:46.161Z,3.80
2022-11-08T21:41:14.098Z,5.40
2022-11-08T21:43:44.310Z,3.60
2022-11-08T21:46:17.894Z,4.33
2022-11-08T21:48:45.933Z,4.87
2022-11-08T21:51:13.713Z,3.93
2022-11-08T21:53:52.348Z,3.83
2022-11-08T21:56:21.536Z,3.80
2022-11-08T21:58:49.281Z,4.00
2022-11-08T22:01:17.257Z,3.33
2022-11-08T22:03:45.436Z,3.50
2022-11-08T22:06:13.254Z,4.27
2022-11-08T22:08:42.359Z,3.83
2022-11-08T22:11:10.057Z,3.50
2022-11-08T22:13:37.796Z,3.63
2022-11-08T22:16:06.224Z,3.70
2022-11-08T22:19:03.113Z,4.03
2022-11-08T22:21:40.724Z,3.80
2022-11-08T22:24:11.850Z,4.30
2022-11-08T22:26:40.566Z,4.07
2022-11-08T22:29:08.703Z,4.27
2022-11-08T22:31:36.718Z,4.17
2022-11-08T22:34:05.153Z,4.60
2022-11-08T22:36:33.339Z,3.90
2022-11-08T22:39:01.448Z,4.30
2022-11-08T22:41:30.836Z,3.50
2022-11-08T22:43:58.911Z,4.27
2022-11-08T22:46:26.691Z,3.63
2022-11-08T22:48:54.437Z,3.43
2022-11-08T22:51:22.230Z,4.17
2022-11-08T22:53:49.947Z,3.27
2022-11-08T22:56:17.663Z,3.77
2022-11-08T22:58:46.749Z,3.47
2022-11-08T23:01:16.638Z,4.70
2022-11-08T23:03:45.716Z,3.80
2022-11-08T23:06:13.818Z,4.23
2022-11-08T23:08:42.061Z,4.30
2022-11-08T23:11:27.661Z,3.23
2022-11-08T23:14:14.560Z,3.07
2022-11-08T23:16:44.428Z,3.80
2022-11-08T23:19:32.463Z,3.00
2022-11-08T23:22:18.682Z,3.13
2022-11-08T23:24:46.454Z,3.10
2022-11-08T23:46:13.360Z,3.30
2022-11-08T23:48:41.840Z,2.77
2022-11-08T23:51:09.744Z,2.80
2022-11-08T23:53:39.868Z,3.10
2022-11-08T23:56:08.321Z,3.10
2022-11-08T23:58:36.076Z,3.40
